Time;durP1;ratioP1;P1;durP2;ratioP2;P2;SDS_P1;SDS_P2;PMS_P1;PMS_P2;Temp;Humidity;BMP_temperature;BMP_pressure;BME280_temperature;BME280_humidity;BME280_pressure;Samples;Min_cycle;Max_cycle;Signal;HPM_P1;HPM_P2
2022/06/07 00:01:07;;;;;;;5.38;3.97;;;19.70;75.40;;;18.79;80.51;95987.09;5024612;28;20040;-68
2022/06/07 00:03:33;;;;;;;5.65;3.70;;;19.70;75.40;;;18.72;80.04;95977.63;5008743;28;20030;-67
2022/06/07 00:05:58;;;;;;;5.03;3.97;;;19.60;75.50;;;18.66;81.14;95974.06;4982014;28;20087;-66
2022/06/07 00:08:24;;;;;;;4.35;3.40;;;19.60;76.20;;;18.63;81.03;95969.22;5004814;28;20033;-65
2022/06/07 00:10:50;;;;;;;5.07;3.55;;;19.60;76.50;;;18.59;82.23;95979.53;5010678;28;20037;-66
2022/06/07 00:13:17;;;;;;;7.93;3.35;;;19.50;76.40;;;18.56;81.41;95973.91;4995539;28;20032;-66
2022/06/07 00:15:43;;;;;;;6.07;3.85;;;19.50;76.70;;;18.52;81.69;95983.38;5008085;28;20026;-66
2022/06/07 00:18:09;;;;;;;5.78;3.40;;;19.50;76.80;;;18.50;83.00;95988.16;4994717;28;20022;-66
2022/06/07 00:20:35;;;;;;;6.28;3.95;;;19.50;76.90;;;18.45;82.64;95991.53;5008933;28;20052;-67
2022/06/07 00:23:06;;;;;;;3.72;3.22;;;19.40;76.80;;;18.43;82.55;95990.97;4992347;28;20543;-66
2022/06/07 00:25:32;;;;;;;7.57;3.40;;;19.30;76.60;;;18.38;82.56;95993.56;4987555;28;20034;-66
2022/06/07 00:27:57;;;;;;;6.53;3.70;;;19.20;77.00;;;18.31;82.82;95993.69;5006887;28;20041;-66
2022/06/07 00:30:23;;;;;;;7.60;4.07;;;19.10;77.30;;;18.25;83.49;96005.31;4997689;28;20045;-67
2022/06/07 00:32:49;;;;;;;4.82;3.53;;;19.10;77.40;;;18.22;82.73;96008.47;4999459;28;20029;-66
2022/06/07 00:35:15;;;;;;;6.03;4.20;;;19.10;76.90;;;18.19;83.53;96010.78;4996683;28;20034;-66
2022/06/07 00:37:40;;;;;;;4.93;3.90;;;19.10;77.30;;;18.14;83.50;96006.19;5013368;28;20033;-67
2022/06/07 00:40:07;;;;;;;7.32;3.95;;;19.10;77.60;;;18.08;84.23;95999.13;4990921;28;20508;-67
2022/06/07 00:42:34;;;;;;;8.05;4.00;;;19.00;77.60;;;18.04;84.08;96001.47;4993613;28;20096;-66
2022/06/07 00:44:59;;;;;;;5.07;3.78;;;18.90;78.00;;;17.98;83.90;96009.59;4999298;28;20112;-66
2022/06/07 00:47:27;;;;;;;4.93;3.90;;;18.80;78.20;;;17.93;84.82;96013.00;5025219;28;20068;-66
2022/06/07 00:50:27;;;;;;;6.68;3.70;;;18.80;78.10;;;17.84;84.37;96008.25;5011006;28;20041;-66
2022/06/07 00:52:52;;;;;;;5.03;3.00;;;18.50;77.10;;;17.73;83.65;96008.06;5009083;28;20026;-66
2022/06/07 00:55:18;;;;;;;6.03;2.78;;;18.50;76.40;;;17.60;81.93;96007.47;5027655;28;20095;-66
2022/06/07 00:57:44;;;;;;;5.40;2.85;;;18.20;76.10;;;17.47;82.25;96010.41;5030088;28;20164;-66
2022/06/07 01:00:12;;;;;;;4.82;2.70;;;18.10;76.50;;;17.35;81.76;96015.75;5023813;28;20065;-67
2022/06/07 01:02:38;;;;;;;3.83;2.70;;;17.90;76.50;;;17.24;81.94;96014.72;4992967;28;20049;-68
2022/06/07 01:05:04;;;;;;;6.72;2.80;;;17.90;76.70;;;17.15;82.06;96014.25;4999686;28;20045;-66
2022/06/07 01:12:59;;;;;;;3.17;2.25;;;17.60;77.00;;;16.84;82.08;96019.91;5010221;28;20076;-67
2022/06/07 01:15:25;;;;;;;3.75;2.40;;;17.50;77.20;;;16.77;82.28;96024.53;5009140;28;20036;-66
2022/06/07 01:17:51;;;;;;;4.45;2.72;;;17.50;77.50;;;16.71;83.00;96017.47;5033735;28;20087;-67
2022/06/07 01:20:16;;;;;;;3.72;2.20;;;17.50;77.80;;;16.68;83.29;96020.59;5017276;28;20137;-66
2022/06/07 01:22:42;;;;;;;5.22;2.20;;;17.50;78.00;;;16.64;83.41;96016.75;5016171;28;20081;-66
2022/06/07 01:25:08;;;;;;;3.42;2.45;;;17.50;78.20;;;16.59;84.00;96014.78;5029220;28;20127;-66
2022/06/07 01:27:34;;;;;;;6.70;3.38;;;17.50;78.20;;;16.54;84.36;95999.53;5018346;28;20041;-66
2022/06/07 01:29:59;;;;;;;3.42;2.35;;;17.50;78.70;;;16.53;84.43;96013.84;5019485;28;20674;-66
2022/06/07 01:32:25;;;;;;;5.18;2.53;;;17.40;78.40;;;16.48;85.50;96010.25;5012719;28;20500;-66
2022/06/07 01:34:53;;;;;;;3.42;2.55;;;17.50;78.80;;;16.46;85.30;96009.66;5014182;28;20060;-66
2022/06/07 01:37:19;;;;;;;21.83;18.23;;;17.50;78.50;;;16.41;85.82;96005.03;5007128;28;20030;-66
2022/06/07 01:42:30;;;;;;;4.93;3.50;;;17.40;78.90;;;16.38;85.79;96005.50;5017956;28;20052;-67
2022/06/07 01:44:56;;;;;;;4.10;2.53;;;17.40;78.80;;;16.35;85.39;95999.84;5035958;28;20407;-66
2022/06/07 01:47:25;;;;;;;8.55;5.60;;;17.40;78.70;;;16.34;86.34;96000.88;4993658;28;20174;-66
2022/06/07 01:49:51;;;;;;;4.95;3.28;;;17.30;78.70;;;16.25;85.94;96000.38;5030875;28;20060;-66
2022/06/07 01:52:18;;;;;;;6.22;3.67;;;17.10;79.10;;;16.22;86.57;95998.19;5028891;28;20455;-67
2022/06/07 01:54:44;;;;;;;4.10;2.58;;;17.10;79.80;;;16.20;86.18;95992.28;5010553;28;20056;-66
2022/06/07 01:57:10;;;;;;;3.58;2.40;;;17.10;79.80;;;16.16;87.34;95976.00;5027962;28;20030;-66
2022/06/07 01:59:38;;;;;;;6.72;5.10;;;17.10;79.50;;;16.15;87.00;95968.28;5013840;28;20033;-66
2022/06/07 02:02:05;;;;;;;20.25;17.92;;;17.10;79.20;;;16.15;87.09;95947.06;5015297;28;20080;-65
2022/06/07 02:04:32;;;;;;;7.82;4.72;;;17.10;79.70;;;16.10;87.18;95952.25;5026473;28;20048;-66
2022/06/07 02:06:57;;;;;;;4.55;2.60;;;17.00;79.80;;;16.09;87.37;95955.94;4995731;28;20481;-66
2022/06/07 02:09:23;;;;;;;3.33;2.40;;;17.00;79.60;;;16.05;86.24;95952.91;5027794;28;20476;-66
2022/06/07 02:11:49;;;;;;;3.13;2.08;;;17.00;79.10;;;16.03;86.48;95954.16;4986483;28;20044;-66
2022/06/07 02:14:15;;;;;;;3.15;2.17;;;17.00;79.20;;;16.00;87.31;95944.81;5006017;28;20026;-65
2022/06/07 02:16:40;;;;;;;3.10;2.42;;;17.00;79.90;;;16.00;87.52;95949.31;4983258;28;20044;-66
2022/06/07 02:19:06;;;;;;;3.97;2.40;;;17.10;80.10;;;16.00;87.43;95951.97;4991487;28;20030;-65
2022/06/07 02:21:32;;;;;;;4.65;2.45;;;17.00;80.10;;;15.99;88.20;95948.50;5006497;28;20037;-66
2022/06/07 02:23:58;;;;;;;14.48;11.55;;;17.00;79.90;;;15.97;88.59;95939.16;5013575;28;20039;-66
2022/06/07 02:26:36;;;;;;;11.88;10.68;;;16.90;80.10;;;15.96;88.93;95950.81;5008623;28;20041;-66
2022/06/07 02:29:07;;;;;;;6.00;3.28;;;17.00;80.30;;;15.92;88.41;95943.31;5019935;28;20054;-66
2022/06/07 02:31:33;;;;;;;;;;;16.90;80.40;;;15.89;90.18;95949.06;5016490;28;20045;-66
2022/06/07 02:33:58;;;;;;;2.72;2.20;;;17.00;80.50;;;15.87;88.06;95945.81;5017800;28;19916;-67
2022/06/07 02:36:24;;;;;;;2.95;2.58;;;17.00;80.40;;;15.87;88.55;95951.13;5009022;28;20045;-68
2022/06/07 02:38:50;;;;;;;3.08;2.33;;;16.90;80.50;;;15.83;88.91;95944.63;5006895;28;20397;-76
2022/06/07 02:41:19;;;;;;;4.40;2.28;;;16.90;80.30;;;15.83;89.19;95944.63;5007165;28;20038;-70
2022/06/07 02:43:45;;;;;;;6.53;2.75;;;16.80;80.70;;;15.82;89.25;95953.63;4994028;28;20034;-69
2022/06/07 02:46:11;;;;;;;5.80;2.60;;;16.80;80.60;;;15.80;89.74;95955.69;4987046;28;20548;-64
2022/06/07 02:48:37;;;;;;;6.55;4.72;;;16.90;80.80;;;15.81;89.54;95961.81;4999723;28;20520;-68
2022/06/07 02:51:03;;;;;;;17.48;14.35;;;16.90;81.00;;;15.81;90.58;95957.31;5021092;28;20062;-68
2022/06/07 02:53:29;;;;;;;10.63;8.27;;;16.80;81.30;;;15.80;90.03;95955.69;5028465;28;20411;-67
2022/06/07 02:55:54;;;;;;;6.45;5.07;;;16.80;81.20;;;15.79;90.53;95945.31;5027266;28;20033;-68
2022/06/07 02:58:20;;;;;;;7.63;6.35;;;16.80;81.30;;;15.79;90.41;95940.81;5002175;28;20033;-68
2022/06/07 03:00:46;;;;;;;10.70;9.35;;;16.80;81.00;;;15.78;90.51;95936.56;4993459;28;20042;-67
2022/06/07 03:03:12;;;;;;;4.30;3.90;;;16.90;80.70;;;15.78;90.49;95946.34;5015277;28;20501;-67
2022/06/07 03:05:38;;;;;;;3.38;2.90;;;16.80;80.30;;;15.74;90.45;95951.31;5006227;28;20033;-68
2022/06/07 03:08:04;;;;;;;19.17;15.52;;;16.80;80.60;;;15.72;89.88;95949.91;5001852;28;20030;-68
2022/06/07 03:10:30;;;;;;;9.85;8.35;;;16.80;80.80;;;15.72;90.02;95953.38;5012829;28;20113;-69
2022/06/07 03:12:55;;;;;;;7.35;5.25;;;16.80;81.10;;;15.72;90.65;95952.56;4991972;28;20493;-67
2022/06/07 03:15:21;;;;;;;4.53;3.17;;;16.90;81.10;;;15.74;91.04;95950.50;5002422;28;20034;-68
2022/06/07 03:17:47;;;;;;;4.40;3.78;;;16.90;80.80;;;15.71;90.57;95962.38;5012014;28;20033;-67
2022/06/07 03:20:13;;;;;;;4.55;2.80;;;16.70;80.50;;;15.68;89.95;95968.13;5003054;28;20077;-68
2022/06/07 03:22:38;;;;;;;3.28;2.97;;;16.80;80.40;;;15.68;90.95;95962.81;4975424;28;20056;-68
2022/06/07 03:25:06;;;;;;;4.47;3.88;;;16.80;81.00;;;15.70;90.50;95970.53;5026937;28;20029;-68
2022/06/07 03:27:33;;;;;;;4.57;3.40;;;16.80;81.10;;;15.70;91.48;95966.03;5008182;28;20369;-69
2022/06/07 03:29:58;;;;;;;4.57;3.60;;;16.80;81.30;;;15.66;91.01;95956.94;5024599;28;20033;-69
2022/06/07 03:32:25;;;;;;;3.78;3.35;;;16.70;81.00;;;15.64;91.03;95956.34;5013577;28;20117;-68
2022/06/07 03:34:51;;;;;;;3.88;2.90;;;16.70;81.40;;;15.67;91.67;95963.03;4992811;28;20045;-68
2022/06/07 03:37:16;;;;;;;6.03;3.60;;;16.80;81.50;;;15.69;92.09;95958.31;5014270;28;20100;-69
2022/06/07 03:39:42;;;;;;;4.63;3.42;;;16.80;81.60;;;15.68;92.22;95965.47;5028949;28;20029;-68
2022/06/07 03:42:08;;;;;;;4.15;3.45;;;16.80;81.70;;;15.70;92.25;95966.03;5019437;28;20033;-66
2022/06/07 03:44:34;;;;;;;5.10;3.65;;;16.80;81.30;;;15.67;91.30;95966.50;4995972;28;20026;-67
2022/06/07 03:47:00;;;;;;;4.90;3.80;;;16.80;81.30;;;15.67;91.79;95969.16;5014135;28;21417;-66
2022/06/07 03:49:26;;;;;;;6.15;3.50;;;16.80;81.60;;;15.70;92.37;95971.34;5013742;28;20472;-63
2022/06/07 03:51:52;;;;;;;5.55;3.35;;;16.80;81.70;;;15.70;92.49;95970.53;5015036;28;20057;-64
2022/06/07 03:54:18;;;;;;;11.15;3.72;;;16.80;81.30;;;15.66;92.11;95970.19;4999880;28;20046;-64
2022/06/07 03:56:44;;;;;;;5.38;3.55;;;16.70;81.50;;;15.66;92.75;95964.88;4997178;28;20408;-63
2022/06/07 03:59:09;;;;;;;4.80;3.40;;;16.80;81.60;;;15.68;92.04;95970.78;5011351;28;20022;-64
2022/06/07 04:01:35;;;;;;;5.30;3.83;;;16.80;81.30;;;15.67;91.71;95961.19;5019953;28;20029;-64
2022/06/07 04:04:05;;;;;;;4.70;3.90;;;16.70;81.50;;;15.67;92.53;95963.84;5030835;28;20108;-65
2022/06/07 04:08:10;;;;;;;8.60;3.70;;;16.80;81.40;;;15.69;93.47;95969.72;5031421;28;20033;-65
2022/06/07 04:09:28;;;;;;;5.05;3.55;;;16.90;81.40;;;15.69;92.23;95972.38;4991833;28;20033;-63
2022/06/07 04:11:54;;;;;;;4.20;3.70;;;16.90;81.40;;;15.69;91.97;95975.03;5031752;28;20048;-66
2022/06/07 04:14:20;;;;;;;4.72;3.97;;;16.80;81.50;;;15.66;92.87;95964.88;5031664;28;20022;-65
2022/06/07 04:16:46;;;;;;;4.78;3.83;;;16.80;81.80;;;15.69;92.44;95974.22;4997394;28;20025;-63
2022/06/07 04:19:11;;;;;;;5.10;4.25;;;16.80;81.70;;;15.65;92.88;95981.00;4991287;28;20062;-65
2022/06/07 04:21:37;;;;;;;4.35;3.85;;;16.80;81.90;;;15.63;92.87;95967.97;4975880;28;20088;-64
2022/06/07 04:24:03;;;;;;;4.25;3.80;;;16.80;82.10;;;15.63;93.46;95970.63;4993228;28;20038;-64
2022/06/07 04:26:29;;;;;;;5.40;4.07;;;16.80;82.00;;;15.63;93.88;95969.81;5034062;28;20026;-63
2022/06/07 04:28:55;;;;;;;9.80;6.57;;;16.80;82.10;;;15.63;93.22;95970.63;4996786;28;20045;-63
2022/06/07 04:31:23;;;;;;;11.50;10.32;;;16.70;82.20;;;15.65;94.04;95970.41;4994147;28;20525;-65
2022/06/07 04:33:49;;;;;;;14.63;11.93;;;16.80;82.40;;;15.64;94.24;95969.59;5018552;28;20038;-64
2022/06/07 04:36:20;;;;;;;11.98;4.93;;;16.80;82.60;;;15.66;94.28;95964.06;5008412;28;20124;-65
2022/06/07 04:38:46;;;;;;;5.07;4.20;;;16.80;82.20;;;15.62;94.27;95963.72;4981215;28;20083;-65
2022/06/07 04:41:14;;;;;;;5.20;4.03;;;16.70;81.80;;;15.62;94.41;95963.72;5014739;28;20026;-64
2022/06/07 04:43:40;;;;;;;4.00;3.42;;;16.70;82.00;;;15.61;93.51;95962.91;4982423;28;20030;-64
2022/06/07 04:46:08;;;;;;;7.10;3.92;;;16.70;81.80;;;15.62;93.82;95969.03;5002287;28;20044;-66
2022/06/07 04:48:34;;;;;;;4.30;3.70;;;16.70;81.50;;;15.60;93.34;95968.41;5006691;28;20571;-65
2022/06/07 04:51:04;;;;;;;6.55;3.90;;;16.80;81.80;;;15.61;94.07;95965.56;5010501;28;20054;-64
2022/06/07 04:53:31;;;;;;;3.78;3.47;;;16.80;82.20;;;15.57;93.69;95968.81;4995386;28;20068;-63
2022/06/07 04:56:06;;;;;;;4.93;3.70;;;16.70;81.90;;;15.55;93.33;95968.25;5013150;28;20040;-66
2022/06/07 04:58:31;;;;;;;4.32;3.60;;;16.70;82.10;;;15.55;93.91;95973.53;5015068;28;20042;-65
2022/06/07 05:00:57;;;;;;;4.43;3.97;;;16.60;81.80;;;15.54;94.22;95972.72;4996637;28;20468;-66
2022/06/07 05:03:23;;;;;;;4.13;3.40;;;16.70;81.90;;;15.51;93.29;95967.88;5024073;28;20153;-64
2022/06/07 05:05:48;;;;;;;4.75;3.55;;;16.60;82.10;;;15.50;94.60;95965.44;5021941;28;20037;-65
2022/06/07 05:08:14;;;;;;;4.50;3.42;;;16.60;82.30;;;15.48;94.12;95962.22;5013900;28;20459;-66
2022/06/07 05:10:40;;;;;;;4.53;3.28;;;16.60;82.30;;;15.52;93.64;95968.69;4997025;28;20508;-65
2022/06/07 05:13:06;;;;;;;4.45;3.70;;;16.70;82.10;;;15.50;93.09;95954.84;5009903;28;20105;-64
2022/06/07 05:15:32;;;;;;;3.33;3.03;;;16.60;81.60;;;15.49;93.60;95967.28;5042449;28;20076;-64
2022/06/07 05:18:00;;;;;;;4.13;3.00;;;16.60;81.40;;;15.49;92.94;95964.66;5013769;28;20518;-65
2022/06/07 05:20:26;;;;;;;3.88;2.72;;;16.60;81.00;;;15.48;93.35;95956.91;4994556;28;20049;-64
2022/06/07 05:22:52;;;;;;;3.05;2.17;;;16.70;80.90;;;15.47;92.39;95950.00;5012207;28;20421;-66
2022/06/07 05:25:18;;;;;;;3.88;2.55;;;16.70;81.00;;;15.55;93.18;95960.28;5021395;28;20034;-65
2022/06/07 05:27:47;;;;;;;3.20;2.15;;;16.80;80.80;;;15.59;93.29;95964.13;5012927;28;20033;-65
2022/06/07 05:30:13;;;;;;;3.60;2.15;;;16.80;80.60;;;15.61;92.33;95962.06;5030029;28;20057;-65
2022/06/07 05:32:39;;;;;;;14.35;12.85;;;16.90;79.50;;;15.61;91.46;95954.94;5015378;28;20556;-66
2022/06/07 05:35:05;;;;;;;9.27;8.35;;;16.90;79.30;;;15.65;91.28;95967.75;5025774;28;20195;-64
2022/06/07 05:37:31;;;;;;;3.70;3.20;;;16.90;79.80;;;15.64;91.69;95956.34;5026895;28;20026;-65
2022/06/07 05:39:57;;;;;;;3.78;2.40;;;16.90;79.60;;;15.65;90.67;95963.25;5001487;28;20029;-65
2022/06/07 05:42:22;;;;;;;3.63;2.00;;;16.90;79.10;;;15.69;91.26;95961.78;4993812;28;20523;-65
2022/06/07 05:44:48;;;;;;;2.45;2.00;;;17.00;79.20;;;15.72;90.16;95963.97;4994253;28;20409;-63
2022/06/07 05:47:14;;;;;;;4.03;2.10;;;17.00;79.30;;;15.72;90.86;95958.66;4999637;28;20421;-65
2022/06/07 05:49:40;;;;;;;4.35;2.20;;;16.90;78.70;;;15.75;90.77;95957.41;5011916;28;20037;-66
2022/06/07 05:52:07;;;;;;;3.00;2.20;;;17.00;79.50;;;15.75;91.10;95955.56;5029964;28;20571;-64
2022/06/07 05:54:34;;;;;;;2.42;2.08;;;17.10;79.70;;;15.74;91.27;95946.00;5009092;28;20034;-66
2022/06/07 05:57:00;;;;;;;5.80;2.15;;;17.10;80.40;;;15.80;92.75;95950.41;4993104;28;20497;-65
2022/06/07 05:59:26;;;;;;;2.78;1.95;;;17.10;80.60;;;15.84;91.35;95956.88;4993059;28;20029;-64
2022/06/07 06:01:52;;;;;;;3.90;2.33;;;17.10;79.70;;;15.89;91.93;95962.31;5003379;28;20489;-65
2022/06/07 06:04:18;;;;;;;2.95;2.20;;;17.30;79.50;;;15.95;91.24;95952.66;5015955;28;20515;-65
2022/06/07 06:06:44;;;;;;;2.60;1.90;;;17.50;78.50;;;16.01;91.18;95950.94;5032296;28;20046;-65
2022/06/07 06:11:54;;;;;;;3.65;2.50;;;17.60;79.20;;;16.14;91.22;95945.44;4996150;28;20112;-66
2022/06/07 06:14:20;;;;;;;3.35;2.13;;;17.70;77.70;;;16.20;90.18;95949.81;5026065;28;20112;-66
2022/06/07 06:16:46;;;;;;;2.83;2.13;;;17.70;77.20;;;16.26;90.05;95948.91;5025531;28;20038;-66
2022/06/07 06:19:11;;;;;;;3.42;2.00;;;17.70;77.70;;;16.31;89.68;95957.03;4991481;28;20064;-64
2022/06/07 06:21:41;;;;;;;4.53;2.17;;;17.80;77.70;;;16.36;89.43;95953.69;5006699;28;20033;-64
2022/06/07 06:24:09;;;;;;;2.90;1.77;;;17.80;77.50;;;16.39;89.00;95953.22;5008895;28;20046;-65
2022/06/07 06:26:36;;;;;;;2.95;1.65;;;17.70;76.80;;;16.40;88.09;95958.28;4992393;28;20129;-66
2022/06/07 06:29:02;;;;;;;2.22;1.77;;;17.70;76.60;;;16.40;87.42;95960.13;5008015;28;20034;-64
2022/06/07 06:31:28;;;;;;;2.72;2.10;;;17.70;76.60;;;16.42;87.81;95963.38;5001384;28;20061;-64
2022/06/07 06:33:54;;;;;;;2.67;2.20;;;17.80;77.10;;;16.41;88.08;95967.88;5005512;28;20029;-64
2022/06/07 06:36:23;;;;;;;2.92;1.92;;;17.70;77.10;;;16.42;88.14;95966.03;4980041;28;20539;-64
2022/06/07 06:38:48;;;;;;;2.92;2.22;;;17.70;77.60;;;16.41;88.61;95967.06;4992611;28;20030;-66
2022/06/07 06:41:23;;;;;;;3.08;2.20;;;17.70;77.90;;;16.37;88.58;95966.72;5009961;28;20523;-64
2022/06/07 06:43:50;;;;;;;3.00;2.00;;;17.60;78.00;;;16.38;88.86;95967.53;5024963;28;20057;-65
2022/06/07 06:46:18;;;;;;;2.60;1.92;;;17.70;78.00;;;16.38;89.16;95965.69;5008910;28;20038;-65
2022/06/07 06:48:44;;;;;;;3.75;1.90;;;17.70;78.40;;;16.39;89.45;95969.94;4976078;28;20393;-64
2022/06/07 06:51:12;;;;;;;3.42;2.13;;;17.70;78.50;;;16.41;89.02;95967.06;5006543;28;20039;-64
2022/06/07 06:53:38;;;;;;;2.85;2.20;;;17.70;77.20;;;16.41;88.57;95967.88;5017514;28;20037;-64
2022/06/07 06:56:05;;;;;;;5.03;2.78;;;17.80;77.10;;;16.41;89.09;95970.53;5013969;28;20034;-65
2022/06/07 06:58:30;;;;;;;4.97;2.38;;;17.80;77.60;;;16.41;89.35;95967.88;4986534;28;20037;-64
2022/06/07 07:01:05;;;;;;;3.95;2.55;;;17.80;77.70;;;16.45;89.44;95973.53;4994681;28;20041;-65
2022/06/07 07:03:31;;;;;;;2.60;2.30;;;17.90;77.80;;;16.47;89.15;95976.75;4983504;28;20030;-65
2022/06/07 07:05:57;;;;;;;5.75;2.20;;;18.00;77.60;;;16.47;89.14;95982.06;5035976;28;20522;-64
2022/06/07 07:08:26;;;;;;;3.83;2.40;;;17.90;77.90;;;16.45;88.65;95977.00;5035348;28;20037;-65
2022/06/07 07:11:20;;;;;;;3.50;2.40;;;17.70;77.80;;;16.43;89.78;95978.25;4999425;28;20041;-66
2022/06/07 07:13:47;;;;;;;4.03;2.60;;;17.80;78.30;;;16.45;89.29;95977.00;5025322;28;20033;-65
2022/06/07 07:16:19;;;;;;;5.57;2.50;;;17.90;77.80;;;16.45;88.51;95978.84;4994860;28;20026;-64
2022/06/07 07:18:45;;;;;;;4.10;2.22;;;17.80;77.30;;;16.47;88.92;95976.75;5030178;28;20037;-64
2022/06/07 07:21:15;;;;;;;3.75;2.60;;;17.90;78.10;;;16.48;89.69;95979.19;5050995;28;20021;-65
2022/06/07 07:23:41;;;;;;;5.55;2.05;;;18.00;78.20;;;16.50;89.62;95985.06;5050520;28;20068;-65
2022/06/07 07:26:22;;;;;;;3.22;2.47;;;18.00;78.30;;;16.51;89.41;95984.03;5034704;28;20030;-65
2022/06/07 07:28:52;;;;;;;2.78;2.15;;;18.00;77.40;;;16.54;89.43;95985.44;5037888;28;20033;-66
2022/06/07 07:31:23;;;;;;;6.65;2.20;;;18.10;77.70;;;16.59;89.13;95992.72;5009038;28;20498;-65
2022/06/07 07:33:50;;;;;;;2.35;2.15;;;18.10;77.20;;;16.58;88.90;95986.59;4980029;28;20038;-65
2022/06/07 07:36:16;;;;;;;5.25;2.40;;;18.10;77.30;;;16.61;88.83;95988.81;4995057;28;20050;-64
2022/06/07 07:38:41;;;;;;;4.60;2.47;;;18.10;77.10;;;16.63;88.71;95989.38;5010947;28;20045;-65
2022/06/07 07:41:28;;;;;;;2.58;2.25;;;18.10;77.30;;;16.68;89.06;95992.19;5028479;28;20033;-64
2022/06/07 07:43:55;;;;;;;2.28;2.08;;;18.20;77.40;;;16.70;88.82;95997.25;5023474;28;20492;-64
2022/06/07 07:46:23;;;;;;;4.28;2.40;;;18.20;76.50;;;16.74;89.30;95993.91;5026082;28;20041;-64
2022/06/07 07:48:49;;;;;;;4.80;2.28;;;18.30;77.70;;;16.77;88.95;95992.66;5020413;28;20123;-65
2022/06/07 07:51:30;;;;;;;4.20;2.42;;;18.30;77.20;;;16.80;89.91;95997.50;4995308;28;20037;-65
2022/06/07 07:53:57;;;;;;;3.50;2.47;;;18.20;76.90;;;16.77;88.37;95998.78;5022225;28;20121;-65
2022/06/07 07:56:23;;;;;;;2.95;2.30;;;18.20;77.60;;;16.76;89.27;95991.84;5003619;28;20034;-66
2022/06/07 07:58:49;;;;;;;3.40;3.08;;;18.10;77.80;;;16.74;89.93;96003.72;5032952;28;20033;-66
2022/06/07 08:01:18;;;;;;;3.65;2.83;;;18.10;78.10;;;16.70;89.34;96000.72;5034327;28;20029;-67
2022/06/07 08:03:43;;;;;;;2.80;2.47;;;18.10;78.30;;;16.66;89.51;95998.72;5017510;28;20389;-65
2022/06/07 08:06:12;;;;;;;4.15;2.80;;;18.00;78.70;;;16.65;89.46;96010.41;5004518;28;20036;-65
2022/06/07 08:08:38;;;;;;;3.33;2.55;;;17.90;78.30;;;16.62;90.19;96006.34;5006270;28;20487;-66
2022/06/07 08:11:04;;;;;;;5.03;3.10;;;18.00;78.80;;;16.61;90.21;96006.59;5015527;28;20045;-64
2022/06/07 08:13:30;;;;;;;7.22;3.40;;;18.10;79.00;;;16.62;90.42;96005.53;5014082;28;20041;-66
2022/06/07 08:15:56;;;;;;;3.72;2.53;;;18.00;79.00;;;16.60;90.00;96002.31;4994441;28;20054;-65
2022/06/07 08:18:23;;;;;;;4.18;3.03;;;18.00;78.00;;;16.60;90.13;96010.28;5007495;28;20035;-65
2022/06/07 08:20:48;;;;;;;4.53;2.70;;;18.00;78.00;;;16.60;89.98;96007.63;4992335;28;20029;-65
2022/06/07 08:23:14;;;;;;;5.15;3.72;;;18.10;78.50;;;16.61;90.39;96002.06;5011291;28;20024;-65
2022/06/07 08:25:40;;;;;;;7.97;4.63;;;18.10;78.50;;;16.58;90.50;95999.06;4994546;28;20452;-65
2022/06/07 08:28:06;;;;;;;6.82;4.85;;;18.00;78.50;;;16.60;90.23;96007.63;5011903;28;20158;-65
2022/06/07 08:30:33;;;;;;;5.53;4.10;;;18.00;78.20;;;16.61;89.96;96009.25;5008481;28;20105;-65
2022/06/07 08:37:32;;;;;;;5.38;3.83;;;18.00;78.00;;;16.61;90.28;96004.72;5013584;28;20517;-66
2022/06/07 08:38:30;;;;;;;3.28;2.97;;;18.00;78.50;;;16.57;90.56;96008.88;5011595;28;20072;-65
2022/06/07 08:40:56;;;;;;;5.47;3.15;;;17.90;78.80;;;16.59;90.61;96011.31;5010359;28;20524;-65
2022/06/07 08:43:23;;;;;;;4.18;3.20;;;18.00;79.50;;;16.60;91.65;96007.63;5014437;28;20157;-66
2022/06/07 08:45:49;;;;;;;4.75;3.35;;;18.00;79.40;;;16.61;91.52;96004.72;4980328;28;20034;-65
2022/06/07 08:48:21;;;;;;;3.78;3.40;;;18.00;79.10;;;16.59;91.02;96012.13;5024133;28;20405;-65
2022/06/07 08:51:11;;;;;;;4.97;3.65;;;17.90;78.60;;;16.61;91.75;96015.34;4998787;28;20030;-66
2022/06/07 08:53:40;;;;;;;5.30;3.97;;;18.00;79.10;;;16.62;91.38;96010.84;5030570;28;20041;-66
2022/06/07 08:56:13;;;;;;;4.00;3.60;;;18.10;79.20;;;16.62;91.59;96014.31;5030649;28;20053;-64
2022/06/07 08:58:42;;;;;;;4.05;3.50;;;18.10;78.90;;;16.63;91.58;96012.47;4996813;28;20038;-65
2022/06/07 09:01:58;;;;;;;4.82;3.60;;;18.10;79.20;;;16.63;92.14;96007.97;5045832;28;20035;-64
2022/06/07 09:04:30;;;;;;;5.25;3.47;;;18.10;79.40;;;16.57;89.81;96013.41;4986558;28;20612;-65
2022/06/07 09:07:03;;;;;;;3.83;3.35;;;17.80;77.50;;;16.48;89.86;96015.56;4997048;28;20031;-64
2022/06/07 09:12:26;;;;;;;6.45;3.50;;;17.80;78.50;;;16.51;90.11;96010.59;5025230;28;20044;-65
2022/06/07 09:15:16;;;;;;;5.57;3.90;;;17.80;78.50;;;16.53;90.26;96008.53;5008562;28;20031;-65
2022/06/07 09:17:48;;;;;;;5.25;4.10;;;18.00;77.90;;;16.56;89.71;96014.44;5011773;28;20038;-65
2022/06/07 09:20:44;;;;;;;7.32;4.07;;;18.10;78.00;;;16.66;91.31;96018.16;5004084;28;20103;-66
2022/06/07 09:23:24;;;;;;;4.75;4.07;;;18.30;78.30;;;16.69;90.05;96016.88;4976336;28;20050;-64
2022/06/07 09:25:52;;;;;;;5.07;4.55;;;18.20;77.80;;;16.75;90.43;96016.00;4990718;28;20029;-64
2022/06/07 09:28:23;;;;;;;5.55;4.40;;;18.40;77.90;;;16.83;90.62;96020.97;5013041;28;20038;-64
2022/06/07 09:31:09;;;;;;;6.28;5.30;;;18.60;77.50;;;16.92;91.21;96016.91;5030608;28;20385;-64
2022/06/07 09:33:37;;;;;;;5.30;4.80;;;18.60;77.20;;;17.01;90.37;96015.53;4977265;28;20026;-66
2022/06/07 09:36:25;;;;;;;5.78;4.80;;;18.80;77.20;;;17.10;89.73;96010.69;4958908;28;20030;-65
2022/06/07 09:39:05;;;;;;;7.45;4.63;;;18.70;76.50;;;17.15;88.85;96008.94;5014366;28;20432;-65
2022/06/07 09:41:37;;;;;;;5.30;4.80;;;18.70;76.10;;;17.23;88.72;96007.00;5007229;28;20045;-64
2022/06/07 09:44:21;;;;;;;5.68;4.85;;;18.90;76.20;;;17.31;90.30;96009.28;5029707;28;20395;-66
2022/06/07 09:46:56;;;;;;;5.38;4.78;;;19.10;76.30;;;17.39;90.07;96004.41;5000158;28;20127;-64
2022/06/07 09:49:45;;;;;;;6.07;4.72;;;19.10;76.50;;;17.54;90.33;96003.13;4999763;28;20053;-64
2022/06/07 09:52:31;;;;;;;5.35;3.90;;;19.40;76.00;;;17.65;89.48;96000.44;5007325;28;20511;-64
2022/06/07 09:55:21;;;;;;;5.20;3.97;;;19.60;75.70;;;17.80;88.39;95996.47;5011368;28;20042;-66
2022/06/07 09:58:06;;;;;;;4.60;3.65;;;19.80;74.50;;;17.92;87.68;96006.06;5014130;28;20033;-66
2022/06/07 10:00:39;;;;;;;4.55;3.72;;;19.80;74.20;;;17.98;87.21;96005.09;4997363;28;20075;-65
2022/06/07 10:03:26;;;;;;;3.78;3.38;;;19.80;72.90;;;18.02;86.44;96010.75;4973814;28;20092;-64
2022/06/07 10:06:27;;;;;;;4.20;3.38;;;19.70;73.40;;;18.00;83.77;96007.50;5006457;28;20033;-65
2022/06/07 10:09:27;;;;;;;3.95;3.50;;;19.50;72.90;;;18.00;83.70;96015.50;4981631;28;20034;-65
2022/06/07 10:12:02;;;;;;;5.07;3.35;;;19.50;73.00;;;18.01;83.47;96003.81;4999299;28;20042;-63
2022/06/07 10:14:51;;;;;;;4.85;3.10;;;19.50;72.40;;;18.02;84.28;96000.09;5006491;28;20064;-65
2022/06/07 10:17:47;;;;;;;5.50;3.50;;;19.60;72.50;;;18.01;83.54;96001.94;5018257;28;20087;-65
2022/06/07 10:20:34;;;;;;;5.32;3.38;;;19.70;72.40;;;18.02;83.22;95997.44;5007713;28;20501;-64
2022/06/07 10:23:16;;;;;;;4.63;2.97;;;19.60;72.10;;;18.16;82.72;96003.28;5009815;28;20037;-66
2022/06/07 10:25:58;;;;;;;3.83;2.88;;;19.90;71.00;;;18.26;80.98;96003.47;5028759;28;20527;-65
2022/06/07 10:28:42;;;;;;;3.83;2.80;;;20.10;69.60;;;18.41;81.23;96002.94;5039909;28;20089;-64
2022/06/07 10:31:29;;;;;;;4.45;2.90;;;20.40;70.30;;;18.52;80.19;95999.38;5044755;28;20544;-64
2022/06/07 10:34:04;;;;;;;3.97;2.90;;;20.50;69.20;;;18.57;79.80;95997.63;5013909;28;20026;-64
2022/06/07 10:37:04;;;;;;;3.70;2.97;;;20.50;68.40;;;18.61;77.17;95988.09;4986887;28;20041;-66
2022/06/07 10:39:49;;;;;;;7.15;2.97;;;20.40;67.00;;;18.67;78.18;95986.34;5004338;28;20061;-64
2022/06/07 10:42:36;;;;;;;4.38;2.67;;;20.60;66.80;;;18.82;78.42;95989.25;5019670;28;20121;-65
2022/06/07 10:45:04;;;;;;;4.43;2.88;;;20.80;67.70;;;18.94;79.55;95986.47;5006875;28;20041;-65